createdAt,value
2018-07-08T00:04:34.042Z,9.80
2018-07-08T00:09:38.778Z,10.35
2018-07-08T00:14:43.306Z,9.48
2018-07-08T00:19:48.126Z,10.82
2018-07-08T00:24:52.876Z,10.80
2018-07-08T00:29:57.833Z,10.70
2018-07-08T00:35:02.551Z,8.75
2018-07-08T00:40:07.398Z,9.93
2018-07-08T00:45:12.239Z,10.78
2018-07-08T00:50:17.164Z,9.23
2018-07-08T00:55:22.113Z,11.55
2018-07-08T01:00:38.120Z,9.78
2018-07-08T01:05:42.952Z,9.40
2018-07-08T01:10:47.677Z,10.10
2018-07-08T01:15:52.427Z,9.35
2018-07-08T01:20:57.137Z,13.75
2018-07-08T01:26:11.618Z,9.78
2018-07-08T01:31:16.479Z,9.50
2018-07-08T01:36:21.288Z,10.85
2018-07-08T01:41:26.000Z,11.73
2018-07-08T01:46:30.880Z,11.57
2018-07-08T01:51:35.621Z,11.88
2018-07-08T01:56:40.455Z,10.72
2018-07-08T02:01:45.409Z,12.47
2018-07-08T02:06:50.261Z,9.48
2018-07-08T02:11:55.137Z,10.95
2018-07-08T02:17:00.103Z,12.65
2018-07-08T02:22:04.964Z,9.50
2018-07-08T02:27:09.888Z,11.03
2018-07-08T02:32:14.872Z,10.32
2018-07-08T02:37:19.797Z,10.05
2018-07-08T02:42:24.620Z,12.20
2018-07-08T02:47:29.460Z,12.85
2018-07-08T02:52:34.411Z,12.73
2018-07-08T02:57:39.121Z,11.35
2018-07-08T03:02:43.856Z,11.80
2018-07-08T03:07:48.589Z,14.05
2018-07-08T03:12:53.357Z,10.65
2018-07-08T03:17:58.192Z,11.75
2018-07-08T03:23:02.933Z,11.22
2018-07-08T03:28:07.774Z,10.78
2018-07-08T03:33:12.474Z,10.23
2018-07-08T03:38:17.932Z,9.48
2018-07-08T03:43:23.219Z,9.90
2018-07-08T03:48:28.012Z,8.30
2018-07-08T03:53:32.888Z,9.38
2018-07-08T03:58:38.232Z,9.55
2018-07-08T04:03:43.000Z,10.98
2018-07-08T04:08:47.687Z,11.55
2018-07-08T04:13:52.759Z,11.57
2018-07-08T04:18:57.691Z,10.58
2018-07-08T04:24:02.486Z,9.55
2018-07-08T04:29:07.472Z,11.30
2018-07-08T04:34:12.290Z,10.35
2018-07-08T04:39:17.159Z,10.63
2018-07-08T04:44:22.079Z,11.60
2018-07-08T04:49:26.819Z,13.65
2018-07-08T04:54:31.524Z,15.20
2018-07-08T04:59:36.283Z,8.25
2018-07-08T05:04:41.018Z,9.20
2018-07-08T05:09:45.970Z,8.75
2018-07-08T05:14:50.821Z,8.38
2018-07-08T05:19:54.949Z,6.92
2018-07-08T05:24:59.668Z,6.22
2018-07-08T05:30:04.527Z,5.45
2018-07-08T05:35:08.730Z,5.78
2018-07-08T05:40:13.828Z,6.33
2018-07-08T05:45:18.686Z,7.25
2018-07-08T05:50:23.446Z,4.67
2018-07-08T05:55:28.130Z,6.20
2018-07-08T06:00:33.305Z,5.78
2018-07-08T06:05:38.286Z,5.50
2018-07-08T06:10:42.962Z,5.58
2018-07-08T06:15:47.763Z,5.55
2018-07-08T06:20:52.595Z,6.25
2018-07-08T06:25:57.461Z,5.75
2018-07-08T06:31:02.459Z,5.25
2018-07-08T06:36:07.188Z,5.08
2018-07-08T06:41:11.937Z,5.55
2018-07-08T06:46:16.572Z,5.58
2018-07-08T06:51:21.688Z,5.33
2018-07-08T06:56:26.530Z,5.25
2018-07-08T07:01:31.177Z,7.08
2018-07-08T07:06:36.101Z,5.50
2018-07-08T07:11:41.025Z,6.08
2018-07-08T07:16:45.928Z,7.78
2018-07-08T07:21:50.639Z,6.20
2018-07-08T07:26:55.602Z,7.10
2018-07-08T07:32:00.557Z,8.40
2018-07-08T07:37:05.439Z,5.78
2018-07-08T07:42:10.291Z,7.22
2018-07-08T07:47:14.997Z,8.85
2018-07-08T07:52:19.678Z,7.40
2018-07-08T07:57:24.432Z,6.45
2018-07-08T08:02:29.119Z,8.83
2018-07-08T08:07:34.522Z,6.62
2018-07-08T08:12:39.456Z,7.62
2018-07-08T08:17:44.293Z,8.33
2018-07-08T08:22:50.247Z,8.13
2018-07-08T08:27:55.102Z,9.98
2018-07-08T08:32:59.881Z,9.05
2018-07-08T08:38:04.675Z,11.73
2018-07-08T08:43:09.364Z,10.75
2018-07-08T08:48:14.108Z,10.60
2018-07-08T08:53:18.836Z,11.70
2018-07-08T08:58:23.676Z,12.60
2018-07-08T09:03:28.654Z,11.90
2018-07-08T09:08:33.355Z,11.80
2018-07-08T09:13:38.092Z,14.15
2018-07-08T09:18:42.979Z,13.13
2018-07-08T09:23:47.812Z,11.88
2018-07-08T09:28:52.629Z,13.00
2018-07-08T09:33:57.247Z,13.53
2018-07-08T09:39:02.437Z,11.30
2018-07-08T09:44:07.160Z,12.15
2018-07-08T09:49:12.024Z,12.20
2018-07-08T09:54:17.282Z,16.00
2018-07-08T09:59:22.100Z,12.70
2018-07-08T10:04:27.176Z,14.07
2018-07-08T10:09:32.077Z,13.32
2018-07-08T10:14:36.793Z,12.73
2018-07-08T10:19:41.595Z,14.10
2018-07-08T10:24:46.263Z,13.13
2018-07-08T10:29:51.014Z,12.13
2018-07-08T10:34:55.944Z,15.35
2018-07-08T10:40:00.780Z,12.65
2018-07-08T10:45:05.816Z,16.05
2018-07-08T10:50:10.654Z,9.83
2018-07-08T10:55:15.540Z,11.33
2018-07-08T11:00:20.463Z,12.35
2018-07-08T11:05:25.422Z,9.60
2018-07-08T11:10:30.348Z,7.78
2018-07-08T11:15:35.387Z,8.60
2018-07-08T11:20:41.043Z,11.33
2018-07-08T11:25:45.978Z,8.23
2018-07-08T11:30:50.815Z,8.60
2018-07-08T11:35:55.748Z,7.85
2018-07-08T11:41:00.748Z,9.98
2018-07-08T11:46:05.545Z,8.15
2018-07-08T11:51:10.350Z,8.58
2018-07-08T11:56:15.692Z,7.03
2018-07-08T12:01:20.375Z,8.18
2018-07-08T12:06:25.333Z,7.80
2018-07-08T12:11:30.198Z,6.30
2018-07-08T12:16:34.989Z,9.58
2018-07-08T12:21:39.883Z,7.20
2018-07-08T12:26:44.533Z,7.67
2018-07-08T12:31:49.459Z,7.47
2018-07-08T12:36:54.294Z,8.58
2018-07-08T12:41:59.158Z,7.47
2018-07-08T12:47:03.933Z,8.88
2018-07-08T12:52:08.837Z,6.05
2018-07-08T12:57:13.627Z,10.63
2018-07-08T13:02:18.363Z,6.67
2018-07-08T13:07:23.568Z,6.53
2018-07-08T13:12:28.386Z,6.28
2018-07-08T13:17:33.010Z,6.17
2018-07-08T13:22:37.859Z,6.08
2018-07-08T13:27:42.795Z,5.62
2018-07-08T13:32:47.544Z,5.42
2018-07-08T13:37:52.323Z,5.30
2018-07-08T13:42:57.225Z,7.42
2018-07-08T13:48:02.270Z,5.17
2018-07-08T13:53:07.627Z,6.95
2018-07-08T13:58:12.411Z,5.65
2018-07-08T14:03:17.138Z,5.60
2018-07-08T14:08:22.123Z,5.78
2018-07-08T14:13:27.062Z,5.67
2018-07-08T14:18:31.902Z,6.12
2018-07-08T14:23:36.600Z,6.05
2018-07-08T14:28:41.692Z,6.67
2018-07-08T14:33:46.570Z,6.53
2018-07-08T14:38:51.316Z,5.83
2018-07-08T14:43:55.943Z,6.42
2018-07-08T14:49:00.898Z,7.45
2018-07-08T14:54:05.667Z,5.62
2018-07-08T14:59:10.609Z,6.37
2018-07-08T15:04:16.180Z,6.10
2018-07-08T15:09:21.084Z,6.40
2018-07-08T15:14:26.420Z,6.78
2018-07-08T15:19:31.149Z,6.53
2018-07-08T15:24:36.021Z,7.85
2018-07-08T15:29:40.961Z,5.97
2018-07-08T15:34:45.984Z,8.23
2018-07-08T15:39:50.829Z,7.00
2018-07-08T15:44:55.566Z,7.65
2018-07-08T15:50:00.404Z,7.20
2018-07-08T15:55:05.252Z,6.75
2018-07-08T16:00:09.972Z,7.22
2018-07-08T16:05:14.749Z,8.10
2018-07-08T16:10:19.669Z,7.00
2018-07-08T16:15:24.300Z,6.65
2018-07-08T16:20:29.002Z,8.20
2018-07-08T16:25:33.995Z,7.05
2018-07-08T16:30:38.933Z,5.90
2018-07-08T16:35:47.913Z,5.65
2018-07-08T16:40:53.779Z,5.53
2018-07-08T16:45:58.943Z,6.97
2018-07-08T16:51:03.734Z,6.00
2018-07-08T16:56:08.767Z,6.25
2018-07-08T17:01:13.935Z,5.35
2018-07-08T17:06:19.090Z,5.97
2018-07-08T17:11:24.019Z,6.15
2018-07-08T17:16:28.891Z,5.62
2018-07-08T17:21:33.746Z,4.28
2018-07-08T17:26:39.149Z,5.37
2018-07-08T17:31:43.952Z,4.85
2018-07-08T17:36:49.010Z,3.87
2018-07-08T17:41:54.053Z,4.05
2018-07-08T17:46:59.180Z,4.08
2018-07-08T17:52:04.227Z,2.70
2018-07-08T17:57:09.047Z,4.45
2018-07-08T18:02:14.128Z,3.08
2018-07-08T18:07:19.043Z,2.72
2018-07-08T18:12:24.931Z,5.22
2018-07-08T18:17:29.968Z,2.50
2018-07-08T18:22:35.065Z,2.95
2018-07-08T18:27:40.257Z,4.35
2018-07-08T18:32:45.292Z,4.08
2018-07-08T18:37:50.279Z,2.40
2018-07-08T18:42:55.055Z,2.42
2018-07-08T18:47:59.481Z,3.37
2018-07-08T18:53:05.137Z,6.35
2018-07-08T18:58:10.112Z,3.75
2018-07-08T19:03:15.056Z,3.90
2018-07-08T19:08:19.946Z,3.92
2018-07-08T19:13:24.674Z,3.15
2018-07-08T19:18:29.560Z,4.40
2018-07-08T19:23:34.585Z,3.33
2018-07-08T19:28:39.511Z,2.83
2018-07-08T19:33:44.475Z,3.58
2018-07-08T19:38:48.808Z,2.58
2018-07-08T19:43:53.847Z,2.27
2018-07-08T19:48:59.334Z,2.83
2018-07-08T19:54:04.287Z,2.72
2018-07-08T19:59:09.248Z,3.60
2018-07-08T20:04:14.113Z,2.50
2018-07-08T20:09:18.695Z,6.95
2018-07-08T20:14:24.043Z,6.20
2018-07-08T20:19:29.090Z,4.25
2018-07-08T20:24:34.119Z,8.95
2018-07-08T20:29:39.125Z,4.25
2018-07-08T20:34:43.995Z,3.33
2018-07-08T20:39:49.045Z,2.98
2018-07-08T20:44:53.846Z,2.98
2018-07-08T20:49:58.012Z,3.20
2018-07-08T20:55:02.832Z,3.17
2018-07-08T21:00:07.526Z,2.85
2018-07-08T21:05:12.496Z,4.87
2018-07-08T21:10:17.416Z,3.02
2018-07-08T21:15:22.075Z,3.15
2018-07-08T21:20:27.109Z,2.62
2018-07-08T21:25:31.817Z,3.52
2018-07-08T21:30:36.646Z,4.40
2018-07-08T21:35:41.483Z,3.55
2018-07-08T21:40:46.645Z,3.20
2018-07-08T21:45:51.510Z,2.58
2018-07-08T21:50:56.117Z,2.83
2018-07-08T21:56:00.956Z,2.55
2018-07-08T22:01:16.519Z,2.72
2018-07-08T22:06:21.734Z,4.30
2018-07-08T22:11:26.766Z,3.87
2018-07-08T22:16:31.710Z,3.25
2018-07-08T22:21:36.542Z,3.95
2018-07-08T22:26:41.737Z,1.90
2018-07-08T22:31:46.604Z,3.45
2018-07-08T22:36:51.354Z,2.15
2018-07-08T22:41:56.156Z,2.50
2018-07-08T22:47:01.024Z,4.80
2018-07-08T22:52:05.853Z,2.58
2018-07-08T22:57:10.622Z,4.53
2018-07-08T23:02:26.470Z,2.98
2018-07-08T23:07:31.301Z,4.35
2018-07-08T23:12:36.395Z,2.37
2018-07-08T23:17:45.201Z,1.70
2018-07-08T23:22:58.672Z,3.92
2018-07-08T23:28:03.560Z,2.30
2018-07-08T23:33:08.729Z,3.98
2018-07-08T23:38:13.437Z,2.83
2018-07-08T23:43:18.152Z,4.72
2018-07-08T23:48:23.142Z,2.52
2018-07-08T23:53:27.951Z,2.05
2018-07-08T23:58:32.727Z,3.02
